createdAt,value
2022-10-21T00:00:25.563Z,0
2022-10-21T00:01:26.086Z,0
2022-10-21T00:02:25.856Z,0
2022-10-21T00:03:25.840Z,0
2022-10-21T00:04:25.269Z,0
2022-10-21T00:05:25.284Z,0
2022-10-21T00:06:24.981Z,0
2022-10-21T00:07:25.478Z,0
2022-10-21T00:08:25.481Z,0
2022-10-21T00:09:25.714Z,0
2022-10-21T00:10:25.261Z,0
2022-10-21T00:11:25.943Z,0
2022-10-21T00:12:24.904Z,0
2022-10-21T00:13:25.912Z,0
2022-10-21T00:14:25.411Z,0
2022-10-21T00:15:25.377Z,0
2022-10-21T00:16:25.633Z,0
2022-10-21T00:17:25.612Z,0
2022-10-21T00:18:25.910Z,0
2022-10-21T00:19:25.391Z,0
2022-10-21T00:20:25.164Z,0
2022-10-21T00:21:25.593Z,0
2022-10-21T00:22:25.552Z,0
2022-10-21T00:23:25.285Z,0
2022-10-21T00:24:25.528Z,0
2022-10-21T00:25:25.521Z,0
2022-10-21T00:26:26.296Z,0
2022-10-21T00:27:25.756Z,0
2022-10-21T00:28:26.258Z,0
2022-10-21T00:29:26.108Z,0
2022-10-21T00:30:26.235Z,0
2022-10-21T00:31:26.222Z,0
2022-10-21T00:32:25.700Z,0
2022-10-21T00:33:25.931Z,0
2022-10-21T00:34:31.126Z,0
2022-10-21T00:35:25.969Z,0
2022-10-21T00:36:25.392Z,0
2022-10-21T00:37:26.434Z,0
2022-10-21T00:38:26.005Z,0
2022-10-21T00:39:25.864Z,0
2022-10-21T00:40:25.851Z,0
2022-10-21T00:41:26.350Z,0
2022-10-21T00:42:25.832Z,0
2022-10-21T00:43:26.075Z,0
2022-10-21T00:44:26.055Z,0
2022-10-21T00:45:25.537Z,0
2022-10-21T00:46:26.035Z,0
2022-10-21T00:47:25.768Z,0
2022-10-21T00:48:25.746Z,0
2022-10-21T00:49:25.998Z,0
2022-10-21T00:50:26.304Z,0
2022-10-21T00:51:26.027Z,0
2022-10-21T00:52:25.447Z,0
2022-10-21T00:53:25.719Z,0
2022-10-21T00:54:25.431Z,0
2022-10-21T00:55:25.678Z,0
2022-10-21T00:56:25.755Z,0
2022-10-21T00:57:25.389Z,0
2022-10-21T00:58:25.894Z,0
2022-10-21T00:59:25.869Z,0
2022-10-21T01:00:25.865Z,0
2022-10-21T01:01:29.794Z,0
2022-10-21T01:02:25.071Z,0
2022-10-21T01:03:25.581Z,0
2022-10-21T01:04:25.306Z,0
2022-10-21T01:05:25.796Z,0
2022-10-21T01:06:25.852Z,0
2022-10-21T01:07:26.079Z,0
2022-10-21T01:08:25.765Z,0
2022-10-21T01:09:25.936Z,0
2022-10-21T01:10:25.738Z,0
2022-10-21T01:11:25.465Z,0
2022-10-21T01:12:25.459Z,0
2022-10-21T01:13:25.181Z,0
2022-10-21T01:14:25.689Z,0
2022-10-21T01:15:25.680Z,0
2022-10-21T01:16:25.410Z,0
2022-10-21T01:17:54.235Z,0
2022-10-21T01:18:25.646Z,0
2022-10-21T01:19:25.653Z,0
2022-10-21T01:20:25.354Z,0
2022-10-21T01:21:24.839Z,0
2022-10-21T01:22:25.895Z,0
2022-10-21T01:23:25.881Z,0
2022-10-21T01:24:25.303Z,0
2022-10-21T01:25:25.592Z,0
2022-10-21T01:26:25.541Z,0
2022-10-21T01:27:25.031Z,0
2022-10-21T01:28:25.515Z,0
2022-10-21T01:29:25.505Z,0
2022-10-21T01:30:25.494Z,0
2022-10-21T01:31:25.222Z,0
2022-10-21T01:32:25.458Z,0
2022-10-21T01:33:57.027Z,0
2022-10-21T01:34:25.448Z,0
2022-10-21T01:35:25.434Z,0
2022-10-21T01:36:25.433Z,0
2022-10-21T01:37:25.482Z,0
2022-10-21T01:38:25.514Z,0
2022-10-21T01:39:25.683Z,0
2022-10-21T01:40:25.120Z,0
2022-10-21T01:41:25.632Z,0
2022-10-21T01:42:25.364Z,0
2022-10-21T01:43:25.347Z,0
2022-10-21T01:44:25.312Z,0
2022-10-21T01:45:24.798Z,0
2022-10-21T01:46:25.042Z,0
2022-10-21T01:47:25.045Z,0
2022-10-21T01:48:25.017Z,0
2022-10-21T01:49:24.754Z,0
2022-10-21T01:50:24.476Z,0
2022-10-21T01:52:24.708Z,0
2022-10-21T01:53:24.947Z,0
2022-10-21T01:54:24.730Z,0
2022-10-21T01:55:25.234Z,0
2022-10-21T01:56:24.710Z,0
2022-10-21T01:57:24.934Z,0
2022-10-21T01:58:25.141Z,0
2022-10-21T01:59:25.130Z,0
2022-10-21T02:01:25.217Z,0
2022-10-21T02:02:24.834Z,0
2022-10-21T02:03:25.083Z,0
2022-10-21T02:04:25.081Z,0
2022-10-21T02:05:24.798Z,0
2022-10-21T02:06:24.790Z,0
2022-10-21T02:07:24.772Z,0
2022-10-21T02:08:25.010Z,0
2022-10-21T02:09:25.696Z,0
2022-10-21T02:10:25.036Z,0
2022-10-21T02:11:25.025Z,0
2022-10-21T02:12:24.958Z,0
2022-10-21T02:13:24.977Z,0
2022-10-21T02:14:25.294Z,0
2022-10-21T02:15:24.417Z,0
2022-10-21T02:16:24.904Z,0
2022-10-21T02:17:24.635Z,0
2022-10-21T02:18:24.922Z,0
2022-10-21T02:19:25.004Z,0
2022-10-21T02:20:24.862Z,0
2022-10-21T02:21:24.331Z,0
2022-10-21T02:22:24.841Z,0
2022-10-21T02:23:24.821Z,0
2022-10-21T02:24:24.836Z,0
2022-10-21T02:25:24.537Z,0
2022-10-21T02:26:24.595Z,0
2022-10-21T02:27:25.077Z,0
2022-10-21T02:28:24.758Z,0
2022-10-21T02:29:25.022Z,0
2022-10-21T02:30:24.976Z,0
2022-10-21T02:31:24.972Z,0
2022-10-21T02:32:24.449Z,0
2022-10-21T02:33:24.428Z,0
2022-10-21T02:34:25.001Z,0
2022-10-21T02:35:24.657Z,0
2022-10-21T02:36:24.910Z,0
2022-10-21T02:37:24.384Z,0
2022-10-21T02:38:24.633Z,0
2022-10-21T02:39:23.844Z,0
2022-10-21T02:40:24.625Z,0
2022-10-21T02:41:24.327Z,0
2022-10-21T02:42:24.876Z,0
2022-10-21T02:43:24.882Z,0
2022-10-21T02:44:24.622Z,0
2022-10-21T02:45:24.563Z,0
2022-10-21T02:46:24.268Z,0
2022-10-21T02:47:24.774Z,0
2022-10-21T02:48:24.246Z,0
2022-10-21T02:49:24.233Z,0
2022-10-21T02:50:24.216Z,0
2022-10-21T02:51:24.462Z,0
2022-10-21T02:52:24.437Z,0
2022-10-21T02:53:24.171Z,0
2022-10-21T02:54:24.169Z,0
2022-10-21T02:55:23.890Z,0
2022-10-21T02:56:24.483Z,0
2022-10-21T02:57:24.131Z,0
2022-10-21T02:58:23.895Z,0
2022-10-21T02:59:24.405Z,0
2022-10-21T03:00:24.365Z,0
2022-10-21T03:01:24.536Z,0
2022-10-21T03:02:24.307Z,0
2022-10-21T03:03:24.045Z,0
2022-10-21T03:04:24.061Z,0
2022-10-21T03:05:23.911Z,0
2022-10-21T03:06:24.257Z,0
2022-10-21T03:07:24.498Z,0
2022-10-21T03:08:24.249Z,0
2022-10-21T03:09:23.714Z,0
2022-10-21T03:10:23.996Z,0
2022-10-21T03:11:23.679Z,0
2022-10-21T03:12:24.187Z,0
2022-10-21T03:13:23.694Z,0
2022-10-21T03:14:24.205Z,0
2022-10-21T03:15:23.937Z,0
2022-10-21T03:16:23.959Z,0
2022-10-21T03:17:29.729Z,0
2022-10-21T03:18:23.862Z,0
2022-10-21T03:19:23.833Z,0
2022-10-21T03:20:23.816Z,0
2022-10-21T03:21:23.808Z,0
2022-10-21T03:22:24.330Z,0
2022-10-21T03:23:23.533Z,0
2022-10-21T03:24:35.521Z,0
2022-10-21T03:25:23.547Z,0
2022-10-21T03:26:23.992Z,0
2022-10-21T03:27:24.479Z,0
2022-10-21T03:28:23.479Z,0
2022-10-21T03:29:23.706Z,0
2022-10-21T03:30:24.257Z,0
2022-10-21T03:31:23.992Z,0
2022-10-21T03:32:23.687Z,0
2022-10-21T03:49:42.273Z,0
2022-10-21T03:50:41.167Z,0
2022-10-21T03:51:41.673Z,0
2022-10-21T03:52:42.550Z,0
2022-10-21T03:53:52.030Z,0
2022-10-21T03:54:41.872Z,0
2022-10-21T03:55:41.858Z,0
2022-10-21T03:56:41.322Z,0
2022-10-21T03:57:42.545Z,0
2022-10-21T03:58:41.580Z,0
2022-10-21T03:59:41.284Z,0
2022-10-21T04:00:41.519Z,0
2022-10-21T04:01:42.135Z,0
2022-10-21T04:02:42.716Z,0
2022-10-21T04:03:40.974Z,0
2022-10-21T04:04:41.028Z,0
2022-10-21T04:05:41.852Z,0
2022-10-21T04:06:41.476Z,0
2022-10-21T04:07:41.181Z,0
2022-10-21T04:08:41.466Z,0
2022-10-21T04:09:41.409Z,0
2022-10-21T04:10:41.130Z,0
2022-10-21T04:11:40.878Z,0
2022-10-21T04:12:41.990Z,0
2022-10-21T04:13:41.358Z,0
2022-10-21T04:14:40.572Z,0
2022-10-21T04:15:41.328Z,0
2022-10-21T04:16:41.312Z,0
2022-10-21T04:17:41.296Z,0
2022-10-21T04:18:41.302Z,0
2022-10-21T04:19:41.288Z,0
2022-10-21T04:20:41.254Z,0
2022-10-21T04:21:41.623Z,0
2022-10-21T04:22:42.277Z,0
2022-10-21T04:23:40.989Z,0
2022-10-21T04:24:41.200Z,0
2022-10-21T04:25:41.188Z,0
2022-10-21T04:26:40.913Z,0
2022-10-21T04:27:41.162Z,0
2022-10-21T04:28:40.387Z,0
2022-10-21T04:29:41.885Z,0
2022-10-21T04:30:41.355Z,0
2022-10-21T04:31:41.403Z,0
2022-10-21T04:32:42.966Z,0
2022-10-21T04:33:41.339Z,0
2022-10-21T04:34:41.081Z,0
2022-10-21T04:35:41.549Z,0
2022-10-21T04:36:41.560Z,0
2022-10-21T04:37:42.158Z,0
2022-10-21T04:38:41.501Z,0
2022-10-21T04:39:41.255Z,0
2022-10-21T04:40:41.487Z,0
2022-10-21T04:41:41.727Z,0
2022-10-21T04:42:41.723Z,0
2022-10-21T04:43:41.472Z,0
2022-10-21T04:44:41.427Z,0
2022-10-21T04:45:41.917Z,0
2022-10-21T04:46:41.895Z,0
2022-10-21T04:47:43.513Z,0
2022-10-21T04:48:42.122Z,0
2022-10-21T04:49:41.607Z,0
2022-10-21T04:50:41.839Z,0
2022-10-21T04:51:42.165Z,0
2022-10-21T04:52:43.168Z,0
2022-10-21T04:53:42.442Z,0
2022-10-21T04:54:41.786Z,0
2022-10-21T04:55:42.056Z,0
2022-10-21T04:56:41.504Z,0
2022-10-21T04:57:41.749Z,0
2022-10-21T04:58:42.014Z,0
2022-10-21T04:59:41.978Z,0
2022-10-21T05:00:42.350Z,0
2022-10-21T05:01:41.643Z,0
2022-10-21T05:02:42.389Z,0
2022-10-21T05:03:41.169Z,0
2022-10-21T05:04:41.918Z,0
2022-10-21T05:05:41.916Z,0
2022-10-21T05:06:42.158Z,0
2022-10-21T05:07:42.146Z,0
2022-10-21T05:08:41.959Z,0
2022-10-21T05:09:42.245Z,0
2022-10-21T05:10:41.849Z,0
2022-10-21T05:11:41.569Z,0
2022-10-21T05:12:42.381Z,0
2022-10-21T05:13:42.053Z,0
2022-10-21T05:14:41.278Z,0
2022-10-21T05:15:41.508Z,0
2022-10-21T05:16:41.506Z,0
2022-10-21T05:17:43.082Z,0
2022-10-21T05:18:41.480Z,0
2022-10-21T05:19:41.712Z,0
2022-10-21T05:20:40.940Z,0
2022-10-21T05:21:41.809Z,0
2022-10-21T05:22:42.586Z,0
2022-10-21T05:23:41.160Z,0
2022-10-21T05:24:41.408Z,0
2022-10-21T05:25:44.205Z,0
2022-10-21T05:26:40.870Z,0
2022-10-21T05:27:41.354Z,0
2022-10-21T05:28:41.853Z,0
2022-10-21T05:29:41.331Z,0
2022-10-21T05:31:41.570Z,0
2022-10-21T05:32:42.243Z,0
2022-10-21T05:33:41.346Z,0
2022-10-21T05:34:41.521Z,0
2022-10-21T05:35:41.274Z,0
2022-10-21T05:36:41.490Z,0
2022-10-21T05:37:41.218Z,0
2022-10-21T05:38:41.454Z,0
2022-10-21T05:40:40.923Z,0
2022-10-21T05:41:46.965Z,0
2022-10-21T05:42:41.953Z,0
2022-10-21T05:43:41.714Z,0
2022-10-21T05:44:41.377Z,5
2022-10-21T05:45:41.369Z,5
2022-10-21T05:46:41.103Z,5
2022-10-21T05:47:41.085Z,5
2022-10-21T05:48:41.615Z,5
2022-10-21T05:49:41.065Z,5
2022-10-21T05:50:41.069Z,5
2022-10-21T05:51:40.889Z,5
2022-10-21T05:52:42.181Z,5
2022-10-21T05:53:41.267Z,5
2022-10-21T05:54:40.992Z,10
2022-10-21T05:55:40.723Z,10
2022-10-21T05:56:41.218Z,10
2022-10-21T05:57:41.786Z,10
2022-10-21T05:58:41.189Z,10
2022-10-21T05:59:40.673Z,10
2022-10-21T06:00:41.397Z,15
2022-10-21T06:01:41.541Z,15
2022-10-21T06:02:42.337Z,15
2022-10-21T06:03:40.607Z,15
2022-10-21T06:04:46.643Z,15
2022-10-21T06:05:41.102Z,20
2022-10-21T06:06:40.577Z,20
2022-10-21T06:07:41.997Z,20
2022-10-21T06:08:41.811Z,25
2022-10-21T06:09:40.527Z,25
2022-10-21T06:10:41.022Z,25
2022-10-21T06:11:41.269Z,30
2022-10-21T06:12:40.740Z,30
2022-10-21T06:13:41.370Z,30
2022-10-21T06:14:40.714Z,35
2022-10-21T06:15:41.221Z,35
2022-10-21T06:16:40.717Z,35
2022-10-21T06:17:42.004Z,35
2022-10-21T06:18:40.949Z,35
2022-10-21T06:19:40.926Z,40
2022-10-21T06:20:40.707Z,40
2022-10-21T06:21:40.385Z,40
2022-10-21T06:22:40.892Z,40
2022-10-21T06:23:40.614Z,40
2022-10-21T06:24:40.599Z,45
2022-10-21T06:25:40.829Z,45
2022-10-21T06:26:45.204Z,45
2022-10-21T06:27:42.017Z,45
2022-10-21T06:28:40.834Z,45
2022-10-21T06:29:41.149Z,45
2022-10-21T06:30:40.754Z,45
2022-10-21T06:31:40.751Z,45
2022-10-21T06:32:39.993Z,50
2022-10-21T06:33:40.467Z,50
2022-10-21T06:34:40.493Z,55
2022-10-21T06:35:40.695Z,60
2022-10-21T06:36:40.432Z,60
2022-10-21T06:37:41.709Z,65
2022-10-21T06:38:40.661Z,70
2022-10-21T06:39:40.634Z,75
2022-10-21T06:40:40.378Z,80
2022-10-21T06:41:40.365Z,85
2022-10-21T06:42:40.355Z,85
2022-10-21T06:43:40.076Z,85
2022-10-21T06:44:40.571Z,80
2022-10-21T06:45:40.942Z,75
2022-10-21T06:46:40.325Z,75
2022-10-21T06:47:41.833Z,70
2022-10-21T06:48:40.523Z,65
2022-10-21T06:49:40.260Z,60
2022-10-21T06:50:40.498Z,60
2022-10-21T06:51:40.477Z,60
2022-10-21T06:52:40.475Z,60
2022-10-21T06:53:45.972Z,60
2022-10-21T06:54:40.205Z,65
2022-10-21T06:55:40.197Z,65
2022-10-21T06:56:40.430Z,65
2022-10-21T06:57:41.589Z,65
2022-10-21T06:58:40.152Z,70
2022-10-21T06:59:40.632Z,70
2022-10-21T07:00:40.387Z,75
2022-10-21T07:02:13.438Z,75
2022-10-21T07:02:41.491Z,75
2022-10-21T07:03:39.818Z,75
2022-10-21T07:04:40.341Z,70
2022-10-21T07:05:40.551Z,70
2022-10-21T07:06:40.327Z,70
2022-10-21T07:07:40.767Z,70
2022-10-21T07:09:05.452Z,65
2022-10-21T07:09:40.693Z,65
2022-10-21T07:10:39.998Z,65
2022-10-21T07:11:40.228Z,65
2022-10-21T07:12:39.959Z,60
2022-10-21T07:13:39.686Z,60
2022-10-21T07:14:40.189Z,60
2022-10-21T07:15:39.930Z,60
2022-10-21T07:16:40.162Z,65
2022-10-21T07:17:41.656Z,70
2022-10-21T07:18:45.223Z,80
2022-10-21T07:19:39.864Z,90
2022-10-21T07:20:40.364Z,100
2022-10-21T07:21:39.837Z,115
2022-10-21T07:22:40.078Z,120
2022-10-21T07:23:39.824Z,125
2022-10-21T07:24:39.804Z,125
2022-10-21T07:25:40.064Z,125
2022-10-21T07:26:40.312Z,125
2022-10-21T07:27:41.277Z,120
2022-10-21T07:28:40.263Z,120
2022-10-21T07:29:40.254Z,115
2022-10-21T07:30:39.728Z,110
2022-10-21T07:31:39.732Z,105
2022-10-21T07:32:40.215Z,105
2022-10-21T07:33:40.357Z,100
2022-10-21T07:34:39.702Z,95
2022-10-21T07:35:39.773Z,90
2022-10-21T07:36:39.911Z,90
2022-10-21T07:37:40.876Z,90
2022-10-21T07:38:39.897Z,100
2022-10-21T07:39:40.134Z,105
2022-10-21T07:40:39.617Z,105
2022-10-21T07:41:39.085Z,105
2022-10-21T07:42:39.839Z,100
2022-10-21T07:43:39.577Z,95
2022-10-21T07:44:39.819Z,95
2022-10-21T07:45:39.805Z,95
2022-10-21T07:46:40.471Z,100
2022-10-21T07:47:41.072Z,100
2022-10-21T07:48:39.920Z,100
2022-10-21T07:49:40.574Z,100
2022-10-21T07:50:39.891Z,95
2022-10-21T07:51:40.328Z,90
2022-10-21T07:53:14.890Z,85
2022-10-21T07:53:39.862Z,85
2022-10-21T07:54:40.353Z,85
2022-10-21T07:55:40.084Z,85
2022-10-21T07:56:39.577Z,85
2022-10-21T07:57:40.064Z,80
2022-10-21T07:58:40.306Z,80
2022-10-21T07:59:39.273Z,85
2022-10-21T08:00:40.175Z,85
2022-10-21T08:01:40.724Z,90
2022-10-21T08:02:41.049Z,90
2022-10-21T08:03:39.229Z,90
2022-10-21T08:04:40.239Z,90
2022-10-21T08:05:40.352Z,95
2022-10-21T08:06:39.967Z,95
2022-10-21T08:07:40.215Z,100
2022-10-21T08:08:41.102Z,105
2022-10-21T08:09:41.016Z,115
2022-10-21T08:10:41.055Z,120
2022-10-21T08:11:40.220Z,130
2022-10-21T08:12:41.777Z,130
2022-10-21T08:13:40.714Z,130
2022-10-21T08:14:40.960Z,130
2022-10-21T08:15:40.942Z,125
2022-10-21T08:16:40.694Z,115
2022-10-21T08:17:41.017Z,105
2022-10-21T08:18:40.404Z,100
2022-10-21T08:19:40.635Z,95
2022-10-21T08:20:40.625Z,95
2022-10-21T08:21:40.992Z,95
2022-10-21T08:22:41.703Z,100
2022-10-21T08:23:40.590Z,100
2022-10-21T08:24:46.007Z,105
2022-10-21T08:25:40.310Z,110
2022-10-21T08:26:40.301Z,120
2022-10-21T08:27:40.558Z,125
2022-10-21T08:28:40.020Z,130
2022-10-21T08:29:45.560Z,125
2022-10-21T08:30:40.627Z,120
2022-10-21T08:31:40.598Z,110
2022-10-21T08:32:42.222Z,105
2022-10-21T08:33:40.576Z,105
2022-10-21T08:34:41.337Z,105
2022-10-21T08:35:40.812Z,110
2022-10-21T08:36:40.793Z,120
2022-10-21T08:37:41.425Z,125
2022-10-21T08:38:41.043Z,125
2022-10-21T08:39:40.776Z,130
2022-10-21T08:40:41.024Z,140
2022-10-21T08:41:41.003Z,145
2022-10-21T08:42:42.190Z,150
2022-10-21T08:43:40.737Z,155
2022-10-21T08:44:40.972Z,160
2022-10-21T08:45:41.218Z,165
2022-10-21T08:46:40.691Z,170
2022-10-21T08:47:41.336Z,175
2022-10-21T08:48:40.416Z,175
2022-10-21T08:49:40.415Z,170
2022-10-21T08:50:40.391Z,160
2022-10-21T08:51:40.896Z,155
2022-10-21T08:52:41.026Z,150
2022-10-21T08:53:41.403Z,145
2022-10-21T08:54:41.006Z,150
2022-10-21T08:55:41.248Z,155
2022-10-21T08:56:40.999Z,165
2022-10-21T08:57:41.960Z,170
2022-10-21T08:58:40.738Z,170
2022-10-21T08:59:40.923Z,175
2022-10-21T09:00:41.502Z,180
2022-10-21T09:01:41.194Z,195
2022-10-21T09:02:40.723Z,210
2022-10-21T09:03:40.917Z,225
2022-10-21T09:04:41.173Z,235
2022-10-21T09:05:40.388Z,235
2022-10-21T09:06:41.138Z,235
2022-10-21T09:07:42.298Z,235
2022-10-21T09:08:41.460Z,220
2022-10-21T09:09:41.248Z,200
2022-10-21T09:10:40.856Z,185
2022-10-21T09:11:41.087Z,180
2022-10-21T09:12:40.328Z,170
2022-10-21T09:13:40.557Z,170
2022-10-21T09:14:40.927Z,170
2022-10-21T09:15:41.146Z,170
2022-10-21T09:16:40.878Z,175
2022-10-21T09:17:42.139Z,180
2022-10-21T09:18:40.604Z,195
2022-10-21T09:19:40.601Z,200
2022-10-21T09:20:41.354Z,195
2022-10-21T09:21:41.088Z,190
2022-10-21T09:22:45.421Z,175
2022-10-21T09:23:41.844Z,165
2022-10-21T09:24:40.578Z,155
2022-10-21T09:25:41.433Z,145
2022-10-21T09:26:40.784Z,145
2022-10-21T09:28:05.479Z,140
2022-10-21T09:28:40.513Z,145
2022-10-21T09:29:40.763Z,155
2022-10-21T09:30:41.008Z,170
2022-10-21T09:31:40.773Z,175
2022-10-21T09:32:41.016Z,175
2022-10-21T09:33:41.252Z,185
2022-10-21T09:34:40.718Z,195
2022-10-21T09:35:41.324Z,200
2022-10-21T09:36:41.324Z,195
2022-10-21T09:37:45.831Z,185
2022-10-21T09:38:41.054Z,180
2022-10-21T09:39:41.811Z,170
2022-10-21T09:40:41.555Z,160
2022-10-21T09:41:41.912Z,145
2022-10-21T09:42:58.838Z,135
2022-10-21T09:43:41.520Z,130
2022-10-21T09:44:41.855Z,120
2022-10-21T09:45:41.781Z,115
2022-10-21T09:46:41.493Z,105
2022-10-21T09:47:40.736Z,100
2022-10-21T09:50:17.348Z,85
2022-10-21T09:50:27.308Z,85
2022-10-21T09:51:26.657Z,85
2022-10-21T09:52:27.165Z,95
2022-10-21T09:53:33.526Z,105
2022-10-21T09:54:27.139Z,105
2022-10-21T09:55:27.142Z,100
2022-10-21T09:56:26.868Z,95
2022-10-21T09:57:27.500Z,85
2022-10-21T09:58:27.380Z,85
2022-10-21T09:59:33.360Z,85
2022-10-21T10:00:27.347Z,80
2022-10-21T10:01:27.079Z,80
2022-10-21T10:02:26.932Z,75
2022-10-21T10:03:26.556Z,75
2022-10-21T10:04:26.836Z,80
2022-10-21T10:05:26.810Z,80
2022-10-21T10:06:26.795Z,80
2022-10-21T10:07:26.777Z,80
2022-10-21T10:08:26.767Z,75
2022-10-21T10:09:27.023Z,70
2022-10-21T10:10:26.753Z,70
2022-10-21T10:11:26.748Z,75
2022-10-21T10:12:26.727Z,80
2022-10-21T10:13:27.372Z,85
2022-10-21T10:14:26.971Z,90
2022-10-21T10:15:31.635Z,90
2022-10-21T10:16:26.434Z,90
2022-10-21T10:17:26.456Z,85
2022-10-21T10:18:26.688Z,85
2022-10-21T10:19:26.393Z,80
2022-10-21T10:20:26.674Z,80
2022-10-21T10:21:26.408Z,85
2022-10-21T10:22:26.900Z,90
2022-10-21T10:23:26.936Z,90
2022-10-21T10:24:27.146Z,90
2022-10-21T10:25:26.872Z,90
2022-10-21T10:26:26.623Z,90
2022-10-21T10:27:26.368Z,90
2022-10-21T10:28:26.610Z,90
2022-10-21T10:29:27.734Z,85
2022-10-21T10:30:26.570Z,85
2022-10-21T10:31:26.873Z,85
2022-10-21T10:32:27.069Z,90
2022-10-21T10:33:27.056Z,100
2022-10-21T10:34:26.798Z,115
2022-10-21T10:35:27.068Z,125
2022-10-21T10:36:26.779Z,130
2022-10-21T10:37:26.520Z,125
2022-10-21T10:38:26.778Z,115
2022-10-21T10:39:26.499Z,115
2022-10-21T10:40:26.743Z,120
2022-10-21T10:41:26.479Z,130
2022-10-21T10:42:26.719Z,150
2022-10-21T10:43:26.969Z,175
2022-10-21T10:44:26.712Z,190
2022-10-21T10:45:27.555Z,205
2022-10-21T10:46:26.435Z,200
2022-10-21T10:47:26.432Z,185
2022-10-21T10:48:26.427Z,170
2022-10-21T10:49:26.418Z,155
2022-10-21T10:50:26.670Z,140
2022-10-21T10:51:26.911Z,135
2022-10-21T10:52:26.998Z,130
2022-10-21T10:53:26.133Z,130
2022-10-21T10:54:26.364Z,130
2022-10-21T10:55:26.896Z,125
2022-10-21T10:56:26.120Z,125
2022-10-21T10:57:58.777Z,125
2022-10-21T10:58:34.007Z,125
2022-10-21T10:59:26.118Z,125
2022-10-21T11:00:26.848Z,130
2022-10-21T11:01:27.789Z,125
2022-10-21T11:02:26.053Z,125
2022-10-21T11:03:32.394Z,125
2022-10-21T11:04:26.582Z,125
2022-10-21T11:05:26.543Z,130
2022-10-21T11:06:26.297Z,135
2022-10-21T11:07:26.283Z,135
2022-10-21T11:08:27.921Z,130
2022-10-21T11:09:32.326Z,125
2022-10-21T11:10:26.505Z,115
2022-10-21T11:11:25.995Z,110
2022-10-21T11:12:26.496Z,100
2022-10-21T11:13:26.219Z,95
2022-10-21T11:14:31.400Z,90
2022-10-21T11:15:26.705Z,90
2022-10-21T11:16:26.185Z,90
2022-10-21T11:17:27.295Z,90
2022-10-21T11:18:34.553Z,100
2022-10-21T11:19:25.653Z,105
2022-10-21T11:20:26.416Z,115
2022-10-21T11:21:26.148Z,120
2022-10-21T11:22:26.403Z,120
2022-10-21T11:23:26.407Z,110
2022-10-21T11:24:26.381Z,100
2022-10-21T11:25:26.369Z,95
2022-10-21T11:26:26.368Z,95
2022-10-21T11:27:28.647Z,95
2022-10-21T11:28:26.356Z,90
2022-10-21T11:29:26.105Z,90
2022-10-21T11:30:25.852Z,85
2022-10-21T11:31:26.319Z,85
2022-10-21T11:32:26.568Z,95
2022-10-21T11:33:27.172Z,105
2022-10-21T11:34:26.296Z,105
2022-10-21T11:35:26.287Z,105
2022-10-21T11:36:25.771Z,105
2022-10-21T11:37:25.760Z,110
2022-10-21T11:38:26.009Z,110
2022-10-21T11:39:30.644Z,110
2022-10-21T11:40:26.499Z,110
2022-10-21T11:41:32.554Z,105
2022-10-21T11:42:26.250Z,105
2022-10-21T11:43:25.988Z,105
2022-10-21T11:44:31.669Z,105
2022-10-21T11:45:26.211Z,110
2022-10-21T11:46:26.217Z,115
2022-10-21T11:47:25.686Z,120
2022-10-21T11:48:25.944Z,120
2022-10-21T11:49:27.036Z,115
2022-10-21T11:50:25.881Z,110
2022-10-21T11:51:26.292Z,105
2022-10-21T11:52:26.154Z,105
2022-10-21T11:53:25.899Z,110
2022-10-21T11:54:26.145Z,110
2022-10-21T11:55:25.623Z,110
2022-10-21T11:56:26.128Z,110
2022-10-21T11:57:25.864Z,115
2022-10-21T11:58:26.101Z,120
2022-10-21T11:59:26.114Z,115
2022-10-21T12:00:25.583Z,115
2022-10-21T12:01:26.080Z,120
2022-10-21T12:02:26.035Z,140
2022-10-21T12:03:25.909Z,150
2022-10-21T12:04:25.900Z,165
2022-10-21T12:05:27.004Z,170
2022-10-21T12:06:26.132Z,170
2022-10-21T12:07:25.615Z,170
2022-10-21T12:09:26.115Z,165
2022-10-21T12:10:26.096Z,140
2022-10-21T12:11:25.844Z,110
2022-10-21T12:12:25.889Z,100
2022-10-21T12:13:26.332Z,105
2022-10-21T12:14:31.724Z,115
2022-10-21T12:15:25.806Z,115
2022-10-21T12:16:25.534Z,105
2022-10-21T12:17:25.933Z,100
2022-10-21T12:18:25.821Z,90
2022-10-21T12:19:26.287Z,110
2022-10-21T12:20:32.949Z,125
2022-10-21T12:21:25.869Z,140
2022-10-21T12:22:25.756Z,135
2022-10-21T12:23:25.727Z,150
2022-10-21T12:24:25.982Z,165
2022-10-21T12:25:26.221Z,175
2022-10-21T12:26:25.777Z,175
2022-10-21T12:27:25.473Z,170
2022-10-21T12:28:25.942Z,175
2022-10-21T12:29:25.683Z,175
2022-10-21T12:30:32.333Z,175
2022-10-21T12:31:25.665Z,175
2022-10-21T12:32:25.912Z,170
2022-10-21T12:33:25.657Z,155
2022-10-21T12:34:25.890Z,145
2022-10-21T12:35:25.628Z,130
2022-10-21T12:36:26.456Z,125
2022-10-21T12:37:25.728Z,115
2022-10-21T12:38:26.132Z,105
2022-10-21T12:39:25.866Z,90
2022-10-21T12:40:25.866Z,80
2022-10-21T12:41:25.834Z,75
2022-10-21T12:42:26.085Z,70
2022-10-21T12:43:25.555Z,75
2022-10-21T12:44:26.080Z,80
2022-10-21T12:45:25.800Z,90
2022-10-21T12:46:25.536Z,95
2022-10-21T12:47:26.314Z,100
2022-10-21T12:48:26.308Z,105
2022-10-21T12:49:26.328Z,110
2022-10-21T12:50:26.541Z,110
2022-10-21T12:51:26.531Z,110
2022-10-21T12:52:26.904Z,105
2022-10-21T12:53:26.290Z,95
2022-10-21T12:54:33.023Z,90
2022-10-21T12:55:26.498Z,80
2022-10-21T12:56:25.983Z,70
2022-10-21T12:57:26.476Z,60
2022-10-21T12:58:26.216Z,60
2022-10-21T12:59:26.717Z,70
2022-10-21T13:00:26.118Z,85
2022-10-21T13:01:26.550Z,95
2022-10-21T13:02:26.444Z,80
2022-10-21T13:03:26.424Z,70
2022-10-21T13:04:26.428Z,70
2022-10-21T13:05:26.182Z,75
2022-10-21T13:06:26.412Z,75
2022-10-21T13:07:26.643Z,70
2022-10-21T13:08:26.473Z,90
2022-10-21T13:10:26.112Z,100
2022-10-21T13:11:26.402Z,85
2022-10-21T13:12:26.348Z,105
2022-10-21T13:13:26.074Z,115
2022-10-21T13:14:26.332Z,125
2022-10-21T13:15:26.073Z,110
2022-10-21T13:16:26.092Z,95
2022-10-21T13:17:26.292Z,75
2022-10-21T13:18:26.493Z,100
2022-10-21T13:19:25.764Z,100
2022-10-21T13:20:26.033Z,85
2022-10-21T13:21:29.986Z,60
2022-10-21T13:22:25.995Z,50
2022-10-21T13:23:26.247Z,50
2022-10-21T13:24:26.596Z,35
2022-10-21T13:25:26.509Z,30
2022-10-21T13:26:25.956Z,25
2022-10-21T13:27:26.691Z,30
2022-10-21T13:28:25.932Z,50
2022-10-21T13:29:26.182Z,70
2022-10-21T13:30:26.178Z,45
2022-10-21T13:31:26.549Z,45
2022-10-21T13:32:27.083Z,65
2022-10-21T13:33:26.062Z,70
2022-10-21T13:34:25.735Z,70
2022-10-21T13:35:26.779Z,35
2022-10-21T13:36:25.956Z,25
2022-10-21T13:37:25.858Z,20
2022-10-21T13:38:26.356Z,10
2022-10-21T13:39:26.372Z,10
2022-10-21T13:40:26.578Z,15
2022-10-21T13:41:25.991Z,15
2022-10-21T13:42:31.429Z,25
2022-10-21T13:43:25.787Z,40
2022-10-21T13:44:26.294Z,35
2022-10-21T13:45:26.021Z,45
2022-10-21T13:46:25.766Z,85
2022-10-21T13:47:25.506Z,90
2022-10-21T13:48:25.995Z,115
2022-10-21T13:49:25.470Z,140
2022-10-21T13:50:25.467Z,145
2022-10-21T13:51:25.969Z,115
2022-10-21T13:52:26.207Z,100
2022-10-21T13:53:25.692Z,90
2022-10-21T13:54:25.929Z,60
2022-10-21T13:55:25.933Z,60
2022-10-21T13:56:26.281Z,40
2022-10-21T13:57:26.053Z,55
2022-10-21T13:58:25.893Z,75
2022-10-21T13:59:25.624Z,65
2022-10-21T14:00:25.899Z,50
2022-10-21T14:01:26.415Z,50
2022-10-21T14:02:25.345Z,40
2022-10-21T14:03:25.848Z,30
2022-10-21T14:04:26.090Z,25
2022-10-21T14:05:25.581Z,15
2022-10-21T14:06:25.579Z,15
2022-10-21T14:07:25.567Z,25
2022-10-21T14:08:25.287Z,40
2022-10-21T14:09:26.084Z,35
2022-10-21T14:10:25.777Z,35
2022-10-21T14:11:25.838Z,55
2022-10-21T14:12:26.174Z,65
2022-10-21T14:13:25.807Z,40
2022-10-21T14:14:25.741Z,45
2022-10-21T14:15:25.721Z,45
2022-10-21T14:16:25.207Z,35
2022-10-21T14:17:24.947Z,40
2022-10-21T14:18:33.667Z,50
2022-10-21T14:19:25.432Z,55
2022-10-21T14:20:25.170Z,70
2022-10-21T14:21:25.147Z,80
2022-10-21T14:22:25.414Z,90
2022-10-21T14:23:25.156Z,90
2022-10-21T14:24:25.426Z,90
2022-10-21T14:25:25.894Z,90
2022-10-21T14:26:25.363Z,80
2022-10-21T14:27:25.609Z,75
2022-10-21T14:28:25.701Z,70
2022-10-21T14:29:25.973Z,70
2022-10-21T14:30:25.347Z,70
2022-10-21T14:31:25.571Z,65
2022-10-21T14:32:25.587Z,70
2022-10-21T14:33:25.314Z,80
2022-10-21T14:34:24.782Z,100
2022-10-21T14:35:25.266Z,120
2022-10-21T14:36:25.814Z,135
2022-10-21T14:37:24.999Z,150
2022-10-21T14:38:25.243Z,150
2022-10-21T14:39:25.253Z,155
2022-10-21T14:40:25.472Z,150
2022-10-21T14:41:25.466Z,135